sensor_id;sensor_type;location;lat;lon;timestamp;P1;durP1;ratioP1;P2;durP2;ratioP2
16193;SDS011;8204;53.582;10.080;2023-07-29T00:00:00;6.30;;;5.70;;
16193;SDS011;8204;53.582;10.080;2023-07-29T00:02:26;5.97;;;5.37;;
16193;SDS011;8204;53.582;10.080;2023-07-29T00:04:54;5.90;;;5.40;;
16193;SDS011;8204;53.582;10.080;2023-07-29T00:07:20;5.73;;;5.23;;
16193;SDS011;8204;53.582;10.080;2023-07-29T00:09:46;6.27;;;5.77;;
16193;SDS011;8204;53.582;10.080;2023-07-29T00:12:11;6.53;;;6.00;;
16193;SDS011;8204;53.582;10.080;2023-07-29T00:14:37;5.23;;;4.73;;
16193;SDS011;8204;53.582;10.080;2023-07-29T00:17:02;6.27;;;5.77;;
16193;SDS011;8204;53.582;10.080;2023-07-29T00:19:32;6.70;;;6.00;;
16193;SDS011;8204;53.582;10.080;2023-07-29T00:21:59;5.57;;;5.17;;
16193;SDS011;8204;53.582;10.080;2023-07-29T00:24:24;6.77;;;6.07;;
16193;SDS011;8204;53.582;10.080;2023-07-29T00:26:50;5.73;;;5.33;;
16193;SDS011;8204;53.582;10.080;2023-07-29T00:29:15;6.60;;;6.10;;
16193;SDS011;8204;53.582;10.080;2023-07-29T00:31:40;5.67;;;5.17;;
16193;SDS011;8204;53.582;10.080;2023-07-29T00:34:06;6.10;;;5.50;;
16193;SDS011;8204;53.582;10.080;2023-07-29T00:36:31;6.07;;;5.57;;
16193;SDS011;8204;53.582;10.080;2023-07-29T00:38:56;5.80;;;5.30;;
16193;SDS011;8204;53.582;10.080;2023-07-29T00:41:22;6.33;;;5.83;;
16193;SDS011;8204;53.582;10.080;2023-07-29T00:43:48;6.43;;;5.93;;
16193;SDS011;8204;53.582;10.080;2023-07-29T00:46:13;6.60;;;5.27;;
16193;SDS011;8204;53.582;10.080;2023-07-29T00:48:39;6.47;;;5.93;;
16193;SDS011;8204;53.582;10.080;2023-07-29T00:51:05;6.67;;;6.17;;
16193;SDS011;8204;53.582;10.080;2023-07-29T00:53:31;6.27;;;5.77;;
16193;SDS011;8204;53.582;10.080;2023-07-29T00:55:57;6.47;;;6.07;;
16193;SDS011;8204;53.582;10.080;2023-07-29T00:58:22;5.60;;;5.20;;
16193;SDS011;8204;53.582;10.080;2023-07-29T01:00:48;6.67;;;6.13;;
16193;SDS011;8204;53.582;10.080;2023-07-29T01:03:14;6.67;;;6.17;;
16193;SDS011;8204;53.582;10.080;2023-07-29T01:05:48;5.53;;;5.13;;
16193;SDS011;8204;53.582;10.080;2023-07-29T01:08:25;5.23;;;4.83;;
16193;SDS011;8204;53.582;10.080;2023-07-29T01:11:14;5.57;;;5.17;;
16193;SDS011;8204;53.582;10.080;2023-07-29T01:13:53;5.77;;;5.30;;
16193;SDS011;8204;53.582;10.080;2023-07-29T01:16:49;6.70;;;5.87;;
16193;SDS011;8204;53.582;10.080;2023-07-29T01:19:23;5.90;;;5.40;;
16193;SDS011;8204;53.582;10.080;2023-07-29T01:22:02;5.70;;;5.30;;
16193;SDS011;8204;53.582;10.080;2023-07-29T01:24:29;6.10;;;5.60;;
16193;SDS011;8204;53.582;10.080;2023-07-29T01:26:54;5.60;;;5.07;;
16193;SDS011;8204;53.582;10.080;2023-07-29T01:29:20;6.27;;;5.77;;
16193;SDS011;8204;53.582;10.080;2023-07-29T01:31:45;5.63;;;5.23;;
16193;SDS011;8204;53.582;10.080;2023-07-29T01:34:17;5.93;;;5.53;;
16193;SDS011;8204;53.582;10.080;2023-07-29T01:36:54;5.83;;;5.33;;
16193;SDS011;8204;53.582;10.080;2023-07-29T01:39:23;6.70;;;6.20;;
16193;SDS011;8204;53.582;10.080;2023-07-29T01:41:53;7.27;;;6.57;;
16193;SDS011;8204;53.582;10.080;2023-07-29T01:44:20;6.40;;;6.00;;
16193;SDS011;8204;53.582;10.080;2023-07-29T01:46:46;7.30;;;6.23;;
16193;SDS011;8204;53.582;10.080;2023-07-29T01:49:12;5.93;;;5.53;;
16193;SDS011;8204;53.582;10.080;2023-07-29T01:51:37;6.13;;;5.73;;
16193;SDS011;8204;53.582;10.080;2023-07-29T01:54:04;6.77;;;6.27;;
16193;SDS011;8204;53.582;10.080;2023-07-29T01:56:29;6.17;;;5.70;;
16193;SDS011;8204;53.582;10.080;2023-07-29T01:58:56;8.53;;;7.73;;
16193;SDS011;8204;53.582;10.080;2023-07-29T02:01:21;7.67;;;7.07;;
16193;SDS011;8204;53.582;10.080;2023-07-29T02:03:47;9.00;;;8.13;;
16193;SDS011;8204;53.582;10.080;2023-07-29T02:06:20;8.70;;;8.00;;
16193;SDS011;8204;53.582;10.080;2023-07-29T02:08:46;8.13;;;7.53;;
16193;SDS011;8204;53.582;10.080;2023-07-29T02:11:12;9.27;;;8.47;;
16193;SDS011;8204;53.582;10.080;2023-07-29T02:13:37;8.67;;;8.07;;
16193;SDS011;8204;53.582;10.080;2023-07-29T02:16:03;8.97;;;8.10;;
16193;SDS011;8204;53.582;10.080;2023-07-29T02:18:28;9.73;;;8.97;;
16193;SDS011;8204;53.582;10.080;2023-07-29T02:20:54;8.87;;;7.97;;
16193;SDS011;8204;53.582;10.080;2023-07-29T02:23:19;8.30;;;7.73;;
16193;SDS011;8204;53.582;10.080;2023-07-29T02:25:44;7.93;;;7.33;;
16193;SDS011;8204;53.582;10.080;2023-07-29T02:28:10;9.67;;;8.90;;
16193;SDS011;8204;53.582;10.080;2023-07-29T02:30:36;8.90;;;8.20;;
16193;SDS011;8204;53.582;10.080;2023-07-29T02:33:02;9.43;;;8.60;;
16193;SDS011;8204;53.582;10.080;2023-07-29T02:35:27;7.77;;;7.17;;
16193;SDS011;8204;53.582;10.080;2023-07-29T02:37:53;7.80;;;7.20;;
16193;SDS011;8204;53.582;10.080;2023-07-29T02:40:19;8.97;;;8.23;;
16193;SDS011;8204;53.582;10.080;2023-07-29T02:42:46;8.63;;;8.03;;
16193;SDS011;8204;53.582;10.080;2023-07-29T02:45:12;8.43;;;7.87;;
16193;SDS011;8204;53.582;10.080;2023-07-29T02:47:37;7.77;;;7.27;;
16193;SDS011;8204;53.582;10.080;2023-07-29T02:50:04;8.87;;;8.07;;
16193;SDS011;8204;53.582;10.080;2023-07-29T02:52:30;9.67;;;8.87;;
16193;SDS011;8204;53.582;10.080;2023-07-29T02:54:55;9.00;;;8.30;;
16193;SDS011;8204;53.582;10.080;2023-07-29T02:57:21;8.60;;;7.80;;
16193;SDS011;8204;53.582;10.080;2023-07-29T02:59:46;10.07;;;9.37;;
16193;SDS011;8204;53.582;10.080;2023-07-29T03:02:11;9.03;;;8.33;;
16193;SDS011;8204;53.582;10.080;2023-07-29T03:04:37;9.20;;;8.50;;
16193;SDS011;8204;53.582;10.080;2023-07-29T03:07:03;9.10;;;8.30;;
16193;SDS011;8204;53.582;10.080;2023-07-29T03:09:28;9.80;;;9.13;;
16193;SDS011;8204;53.582;10.080;2023-07-29T03:11:54;10.73;;;10.03;;
16193;SDS011;8204;53.582;10.080;2023-07-29T03:14:20;9.93;;;9.23;;
16193;SDS011;8204;53.582;10.080;2023-07-29T03:16:46;9.70;;;8.93;;
16193;SDS011;8204;53.582;10.080;2023-07-29T03:19:12;10.50;;;9.70;;
16193;SDS011;8204;53.582;10.080;2023-07-29T03:21:38;10.40;;;9.60;;
16193;SDS011;8204;53.582;10.080;2023-07-29T03:24:03;10.20;;;9.37;;
16193;SDS011;8204;53.582;10.080;2023-07-29T03:26:29;10.37;;;9.30;;
16193;SDS011;8204;53.582;10.080;2023-07-29T03:28:55;11.23;;;10.43;;
16193;SDS011;8204;53.582;10.080;2023-07-29T03:31:20;10.40;;;9.67;;
16193;SDS011;8204;53.582;10.080;2023-07-29T03:33:45;10.77;;;10.00;;
16193;SDS011;8204;53.582;10.080;2023-07-29T03:36:11;10.33;;;9.53;;
16193;SDS011;8204;53.582;10.080;2023-07-29T03:38:37;10.03;;;9.13;;
16193;SDS011;8204;53.582;10.080;2023-07-29T03:41:05;11.03;;;9.93;;
16193;SDS011;8204;53.582;10.080;2023-07-29T03:43:32;11.60;;;10.60;;
16193;SDS011;8204;53.582;10.080;2023-07-29T03:45:58;11.53;;;10.53;;
16193;SDS011;8204;53.582;10.080;2023-07-29T03:48:23;11.53;;;10.40;;
16193;SDS011;8204;53.582;10.080;2023-07-29T03:50:49;12.43;;;11.43;;
16193;SDS011;8204;53.582;10.080;2023-07-29T03:53:14;12.00;;;11.00;;
16193;SDS011;8204;53.582;10.080;2023-07-29T03:55:39;12.13;;;11.23;;
16193;SDS011;8204;53.582;10.080;2023-07-29T03:58:05;14.10;;;12.90;;
16193;SDS011;8204;53.582;10.080;2023-07-29T04:00:31;12.90;;;11.90;;
16193;SDS011;8204;53.582;10.080;2023-07-29T04:02:56;14.40;;;13.23;;
16193;SDS011;8204;53.582;10.080;2023-07-29T04:05:22;13.60;;;12.40;;
16193;SDS011;8204;53.582;10.080;2023-07-29T04:07:47;13.23;;;12.27;;
16193;SDS011;8204;53.582;10.080;2023-07-29T04:10:13;14.77;;;13.47;;
16193;SDS011;8204;53.582;10.080;2023-07-29T04:12:39;16.50;;;15.10;;
16193;SDS011;8204;53.582;10.080;2023-07-29T04:15:04;18.13;;;15.77;;
16193;SDS011;8204;53.582;10.080;2023-07-29T04:17:30;16.97;;;15.67;;
16193;SDS011;8204;53.582;10.080;2023-07-29T04:19:56;16.77;;;15.30;;
16193;SDS011;8204;53.582;10.080;2023-07-29T04:22:22;16.17;;;15.00;;
16193;SDS011;8204;53.582;10.080;2023-07-29T04:24:47;18.20;;;16.50;;
16193;SDS011;8204;53.582;10.080;2023-07-29T04:27:12;18.67;;;17.03;;
16193;SDS011;8204;53.582;10.080;2023-07-29T04:29:38;19.57;;;17.77;;
16193;SDS011;8204;53.582;10.080;2023-07-29T04:32:03;19.00;;;17.47;;
16193;SDS011;8204;53.582;10.080;2023-07-29T04:34:29;17.37;;;15.97;;
16193;SDS011;8204;53.582;10.080;2023-07-29T04:36:54;19.13;;;17.53;;
16193;SDS011;8204;53.582;10.080;2023-07-29T04:39:20;19.23;;;17.53;;
16193;SDS011;8204;53.582;10.080;2023-07-29T04:41:45;19.97;;;18.47;;
16193;SDS011;8204;53.582;10.080;2023-07-29T04:44:11;19.13;;;17.43;;
16193;SDS011;8204;53.582;10.080;2023-07-29T04:46:37;21.10;;;19.30;;
16193;SDS011;8204;53.582;10.080;2023-07-29T04:49:03;23.93;;;21.73;;
16193;SDS011;8204;53.582;10.080;2023-07-29T04:51:29;21.13;;;19.43;;
16193;SDS011;8204;53.582;10.080;2023-07-29T04:53:55;24.33;;;22.33;;
16193;SDS011;8204;53.582;10.080;2023-07-29T04:56:20;24.47;;;22.57;;
16193;SDS011;8204;53.582;10.080;2023-07-29T04:58:45;26.03;;;23.80;;
16193;SDS011;8204;53.582;10.080;2023-07-29T05:01:11;26.63;;;24.33;;
16193;SDS011;8204;53.582;10.080;2023-07-29T05:03:36;27.57;;;25.23;;
16193;SDS011;8204;53.582;10.080;2023-07-29T05:06:02;27.70;;;25.37;;
16193;SDS011;8204;53.582;10.080;2023-07-29T05:08:28;26.70;;;24.37;;
16193;SDS011;8204;53.582;10.080;2023-07-29T05:10:54;29.53;;;27.07;;
16193;SDS011;8204;53.582;10.080;2023-07-29T05:13:22;28.17;;;25.60;;
16193;SDS011;8204;53.582;10.080;2023-07-29T05:15:48;27.33;;;24.93;;
16193;SDS011;8204;53.582;10.080;2023-07-29T05:18:14;29.97;;;27.07;;
16193;SDS011;8204;53.582;10.080;2023-07-29T05:20:41;31.47;;;28.67;;
16193;SDS011;8204;53.582;10.080;2023-07-29T05:23:06;33.30;;;30.40;;
16193;SDS011;8204;53.582;10.080;2023-07-29T05:25:32;34.70;;;31.57;;
16193;SDS011;8204;53.582;10.080;2023-07-29T05:27:59;36.17;;;32.77;;
16193;SDS011;8204;53.582;10.080;2023-07-29T05:30:25;40.53;;;36.50;;
16193;SDS011;8204;53.582;10.080;2023-07-29T05:32:52;34.40;;;31.60;;
16193;SDS011;8204;53.582;10.080;2023-07-29T05:35:17;35.57;;;32.63;;
16193;SDS011;8204;53.582;10.080;2023-07-29T05:37:43;33.47;;;30.73;;
16193;SDS011;8204;53.582;10.080;2023-07-29T05:40:08;34.93;;;32.03;;
16193;SDS011;8204;53.582;10.080;2023-07-29T05:42:34;33.53;;;30.67;;
16193;SDS011;8204;53.582;10.080;2023-07-29T05:45:00;35.40;;;31.80;;
16193;SDS011;8204;53.582;10.080;2023-07-29T05:47:26;34.47;;;31.67;;
16193;SDS011;8204;53.582;10.080;2023-07-29T05:49:52;33.07;;;30.00;;
16193;SDS011;8204;53.582;10.080;2023-07-29T05:52:18;35.07;;;31.80;;
16193;SDS011;8204;53.582;10.080;2023-07-29T05:54:43;35.23;;;32.13;;
16193;SDS011;8204;53.582;10.080;2023-07-29T05:57:09;36.33;;;33.40;;
16193;SDS011;8204;53.582;10.080;2023-07-29T05:59:36;32.63;;;29.73;;
16193;SDS011;8204;53.582;10.080;2023-07-29T06:02:01;33.43;;;30.73;;
16193;SDS011;8204;53.582;10.080;2023-07-29T06:04:28;31.20;;;28.73;;
16193;SDS011;8204;53.582;10.080;2023-07-29T06:06:53;29.70;;;27.40;;
16193;SDS011;8204;53.582;10.080;2023-07-29T06:09:20;28.77;;;26.43;;
16193;SDS011;8204;53.582;10.080;2023-07-29T06:11:46;28.63;;;26.10;;
16193;SDS011;8204;53.582;10.080;2023-07-29T06:14:11;29.80;;;27.33;;
16193;SDS011;8204;53.582;10.080;2023-07-29T06:16:37;27.27;;;25.07;;
16193;SDS011;8204;53.582;10.080;2023-07-29T06:19:03;29.10;;;26.80;;
16193;SDS011;8204;53.582;10.080;2023-07-29T06:21:28;29.97;;;27.43;;
16193;SDS011;8204;53.582;10.080;2023-07-29T06:23:53;31.23;;;28.83;;
16193;SDS011;8204;53.582;10.080;2023-07-29T06:26:19;31.70;;;28.90;;
16193;SDS011;8204;53.582;10.080;2023-07-29T06:28:44;30.47;;;27.83;;
16193;SDS011;8204;53.582;10.080;2023-07-29T06:31:10;29.83;;;27.53;;
16193;SDS011;8204;53.582;10.080;2023-07-29T06:33:36;31.10;;;28.23;;
16193;SDS011;8204;53.582;10.080;2023-07-29T06:36:01;31.83;;;29.03;;
16193;SDS011;8204;53.582;10.080;2023-07-29T06:38:27;31.07;;;28.27;;
16193;SDS011;8204;53.582;10.080;2023-07-29T06:40:53;31.13;;;28.47;;
16193;SDS011;8204;53.582;10.080;2023-07-29T06:43:18;31.90;;;29.30;;
16193;SDS011;8204;53.582;10.080;2023-07-29T06:45:43;30.57;;;28.10;;
16193;SDS011;8204;53.582;10.080;2023-07-29T06:48:09;30.67;;;27.93;;
16193;SDS011;8204;53.582;10.080;2023-07-29T06:50:35;31.67;;;28.63;;
16193;SDS011;8204;53.582;10.080;2023-07-29T06:53:01;29.17;;;26.87;;
16193;SDS011;8204;53.582;10.080;2023-07-29T06:55:26;31.80;;;28.70;;
16193;SDS011;8204;53.582;10.080;2023-07-29T06:57:52;30.60;;;27.90;;
16193;SDS011;8204;53.582;10.080;2023-07-29T07:00:18;27.90;;;25.60;;
16193;SDS011;8204;53.582;10.080;2023-07-29T07:02:43;29.27;;;26.63;;
16193;SDS011;8204;53.582;10.080;2023-07-29T07:05:08;28.30;;;26.03;;
16193;SDS011;8204;53.582;10.080;2023-07-29T07:07:34;25.63;;;23.43;;
16193;SDS011;8204;53.582;10.080;2023-07-29T07:09:59;25.17;;;23.17;;
16193;SDS011;8204;53.582;10.080;2023-07-29T07:12:25;26.73;;;24.53;;
16193;SDS011;8204;53.582;10.080;2023-07-29T07:14:51;25.50;;;23.33;;
16193;SDS011;8204;53.582;10.080;2023-07-29T07:17:16;25.70;;;23.30;;
16193;SDS011;8204;53.582;10.080;2023-07-29T07:19:43;25.00;;;23.00;;
16193;SDS011;8204;53.582;10.080;2023-07-29T07:22:08;25.77;;;23.70;;
16193;SDS011;8204;53.582;10.080;2023-07-29T07:24:33;25.97;;;23.67;;
16193;SDS011;8204;53.582;10.080;2023-07-29T07:26:59;24.20;;;22.20;;
16193;SDS011;8204;53.582;10.080;2023-07-29T07:29:25;24.90;;;22.90;;
16193;SDS011;8204;53.582;10.080;2023-07-29T07:31:51;24.53;;;22.27;;
16193;SDS011;8204;53.582;10.080;2023-07-29T07:34:18;23.13;;;21.23;;
16193;SDS011;8204;53.582;10.080;2023-07-29T07:36:44;24.43;;;22.27;;
16193;SDS011;8204;53.582;10.080;2023-07-29T07:39:10;26.50;;;24.13;;
16193;SDS011;8204;53.582;10.080;2023-07-29T07:41:36;23.93;;;22.03;;
16193;SDS011;8204;53.582;10.080;2023-07-29T07:44:01;23.73;;;21.73;;
16193;SDS011;8204;53.582;10.080;2023-07-29T07:46:28;25.60;;;23.50;;
16193;SDS011;8204;53.582;10.080;2023-07-29T07:48:54;25.17;;;23.17;;
16193;SDS011;8204;53.582;10.080;2023-07-29T07:51:20;23.67;;;21.67;;
16193;SDS011;8204;53.582;10.080;2023-07-29T07:53:45;24.33;;;22.33;;
16193;SDS011;8204;53.582;10.080;2023-07-29T07:56:11;22.23;;;20.57;;
16193;SDS011;8204;53.582;10.080;2023-07-29T07:58:36;22.77;;;20.93;;
16193;SDS011;8204;53.582;10.080;2023-07-29T08:01:05;21.67;;;19.77;;
16193;SDS011;8204;53.582;10.080;2023-07-29T08:03:32;20.17;;;18.57;;
16193;SDS011;8204;53.582;10.080;2023-07-29T08:05:58;19.43;;;17.83;;
16193;SDS011;8204;53.582;10.080;2023-07-29T08:08:23;19.33;;;17.77;;
16193;SDS011;8204;53.582;10.080;2023-07-29T08:10:50;18.80;;;17.23;;
16193;SDS011;8204;53.582;10.080;2023-07-29T08:13:15;18.73;;;17.23;;
16193;SDS011;8204;53.582;10.080;2023-07-29T08:15:41;18.63;;;16.90;;
16193;SDS011;8204;53.582;10.080;2023-07-29T08:18:06;16.97;;;15.57;;
16193;SDS011;8204;53.582;10.080;2023-07-29T08:20:32;18.30;;;16.83;;
16193;SDS011;8204;53.582;10.080;2023-07-29T08:22:57;15.77;;;14.50;;
16193;SDS011;8204;53.582;10.080;2023-07-29T08:25:23;16.77;;;15.47;;
16193;SDS011;8204;53.582;10.080;2023-07-29T08:27:48;18.57;;;16.97;;
16193;SDS011;8204;53.582;10.080;2023-07-29T08:30:14;17.97;;;16.47;;
16193;SDS011;8204;53.582;10.080;2023-07-29T08:32:41;17.10;;;15.80;;
16193;SDS011;8204;53.582;10.080;2023-07-29T08:35:06;17.40;;;16.10;;
16193;SDS011;8204;53.582;10.080;2023-07-29T08:37:32;15.43;;;14.33;;
16193;SDS011;8204;53.582;10.080;2023-07-29T08:39:58;15.43;;;14.13;;
16193;SDS011;8204;53.582;10.080;2023-07-29T08:42:23;16.00;;;14.90;;
16193;SDS011;8204;53.582;10.080;2023-07-29T08:44:55;16.47;;;15.27;;
16193;SDS011;8204;53.582;10.080;2023-07-29T08:47:21;16.57;;;15.23;;
16193;SDS011;8204;53.582;10.080;2023-07-29T08:49:46;16.23;;;14.83;;
16193;SDS011;8204;53.582;10.080;2023-07-29T08:52:14;16.23;;;14.97;;
16193;SDS011;8204;53.582;10.080;2023-07-29T08:54:40;13.97;;;12.97;;
16193;SDS011;8204;53.582;10.080;2023-07-29T08:57:06;14.93;;;13.80;;
16193;SDS011;8204;53.582;10.080;2023-07-29T08:59:31;15.20;;;14.00;;
16193;SDS011;8204;53.582;10.080;2023-07-29T09:01:58;14.83;;;13.63;;
16193;SDS011;8204;53.582;10.080;2023-07-29T09:04:23;16.47;;;15.20;;
16193;SDS011;8204;53.582;10.080;2023-07-29T09:06:50;14.83;;;13.77;;
16193;SDS011;8204;53.582;10.080;2023-07-29T09:09:16;15.47;;;14.33;;
16193;SDS011;8204;53.582;10.080;2023-07-29T09:11:41;16.00;;;14.70;;
16193;SDS011;8204;53.582;10.080;2023-07-29T09:14:08;15.47;;;14.33;;
16193;SDS011;8204;53.582;10.080;2023-07-29T09:16:34;15.97;;;14.87;;
16193;SDS011;8204;53.582;10.080;2023-07-29T09:19:01;18.03;;;16.57;;
16193;SDS011;8204;53.582;10.080;2023-07-29T09:21:28;15.43;;;14.20;;
16193;SDS011;8204;53.582;10.080;2023-07-29T09:23:54;18.00;;;16.60;;
16193;SDS011;8204;53.582;10.080;2023-07-29T09:26:24;17.27;;;15.90;;
16193;SDS011;8204;53.582;10.080;2023-07-29T09:28:52;16.50;;;15.07;;
16193;SDS011;8204;53.582;10.080;2023-07-29T09:31:22;19.97;;;18.37;;
16193;SDS011;8204;53.582;10.080;2023-07-29T09:33:49;16.13;;;14.87;;
16193;SDS011;8204;53.582;10.080;2023-07-29T09:36:15;16.00;;;14.70;;
16193;SDS011;8204;53.582;10.080;2023-07-29T09:38:40;15.93;;;14.53;;
16193;SDS011;8204;53.582;10.080;2023-07-29T09:41:06;13.60;;;12.57;;
16193;SDS011;8204;53.582;10.080;2023-07-29T09:43:32;13.77;;;12.77;;
16193;SDS011;8204;53.582;10.080;2023-07-29T09:46:05;14.17;;;12.77;;
16193;SDS011;8204;53.582;10.080;2023-07-29T09:48:32;13.27;;;12.37;;
16193;SDS011;8204;53.582;10.080;2023-07-29T09:51:11;13.37;;;12.27;;
16193;SDS011;8204;53.582;10.080;2023-07-29T09:53:47;14.07;;;12.93;;
16193;SDS011;8204;53.582;10.080;2023-07-29T09:56:15;16.10;;;14.70;;
16193;SDS011;8204;53.582;10.080;2023-07-29T09:58:42;11.97;;;11.03;;
16193;SDS011;8204;53.582;10.080;2023-07-29T10:01:11;13.93;;;12.73;;
16193;SDS011;8204;53.582;10.080;2023-07-29T10:03:36;13.33;;;12.27;;
16193;SDS011;8204;53.582;10.080;2023-07-29T10:06:02;14.13;;;13.03;;
16193;SDS011;8204;53.582;10.080;2023-07-29T10:08:29;13.93;;;12.80;;
16193;SDS011;8204;53.582;10.080;2023-07-29T10:11:00;13.93;;;12.73;;
16193;SDS011;8204;53.582;10.080;2023-07-29T10:13:27;11.30;;;10.40;;
16193;SDS011;8204;53.582;10.080;2023-07-29T10:15:53;11.03;;;10.13;;
16193;SDS011;8204;53.582;10.080;2023-07-29T10:18:19;10.07;;;9.23;;
16193;SDS011;8204;53.582;10.080;2023-07-29T10:20:47;10.20;;;9.30;;
16193;SDS011;8204;53.582;10.080;2023-07-29T10:23:15;7.87;;;7.10;;
16193;SDS011;8204;53.582;10.080;2023-07-29T10:25:45;9.93;;;9.07;;
16193;SDS011;8204;53.582;10.080;2023-07-29T10:28:12;9.87;;;9.07;;
16193;SDS011;8204;53.582;10.080;2023-07-29T10:30:39;7.53;;;6.93;;
16193;SDS011;8204;53.582;10.080;2023-07-29T10:33:05;6.57;;;5.97;;
16193;SDS011;8204;53.582;10.080;2023-07-29T10:35:32;6.53;;;6.13;;
16193;SDS011;8204;53.582;10.080;2023-07-29T10:37:59;6.70;;;6.20;;
16193;SDS011;8204;53.582;10.080;2023-07-29T10:40:25;7.67;;;7.07;;
16193;SDS011;8204;53.582;10.080;2023-07-29T10:45:50;5.77;;;5.47;;
16193;SDS011;8204;53.582;10.080;2023-07-29T10:54:03;5.60;;;5.20;;
16193;SDS011;8204;53.582;10.080;2023-07-29T10:56:35;5.03;;;4.73;;
16193;SDS011;8204;53.582;10.080;2023-07-29T11:01:37;4.47;;;4.23;;
16193;SDS011;8204;53.582;10.080;2023-07-29T11:17:35;4.27;;;4.07;;
16193;SDS011;8204;53.582;10.080;2023-07-29T11:20:04;4.63;;;4.33;;
16193;SDS011;8204;53.582;10.080;2023-07-29T11:22:30;4.10;;;3.80;;
16193;SDS011;8204;53.582;10.080;2023-07-29T11:24:56;7.03;;;4.90;;
16193;SDS011;8204;53.582;10.080;2023-07-29T11:27:21;4.43;;;4.13;;
16193;SDS011;8204;53.582;10.080;2023-07-29T11:29:47;5.47;;;5.17;;
16193;SDS011;8204;53.582;10.080;2023-07-29T11:32:13;4.37;;;4.07;;
16193;SDS011;8204;53.582;10.080;2023-07-29T11:34:40;4.87;;;4.57;;
16193;SDS011;8204;53.582;10.080;2023-07-29T11:37:08;4.93;;;4.53;;
16193;SDS011;8204;53.582;10.080;2023-07-29T11:39:42;4.77;;;4.47;;
16193;SDS011;8204;53.582;10.080;2023-07-29T11:42:10;4.47;;;4.07;;
16193;SDS011;8204;53.582;10.080;2023-07-29T11:44:37;4.30;;;4.00;;
16193;SDS011;8204;53.582;10.080;2023-07-29T11:47:09;3.83;;;3.53;;
16193;SDS011;8204;53.582;10.080;2023-07-29T11:49:38;3.80;;;3.50;;
16193;SDS011;8204;53.582;10.080;2023-07-29T11:52:09;4.20;;;3.57;;
16193;SDS011;8204;53.582;10.080;2023-07-29T11:54:36;5.17;;;4.10;;
16193;SDS011;8204;53.582;10.080;2023-07-29T11:57:03;3.90;;;3.70;;
16193;SDS011;8204;53.582;10.080;2023-07-29T11:59:31;3.77;;;3.57;;
16193;SDS011;8204;53.582;10.080;2023-07-29T12:02:00;4.43;;;4.13;;
16193;SDS011;8204;53.582;10.080;2023-07-29T12:04:26;4.80;;;4.50;;
16193;SDS011;8204;53.582;10.080;2023-07-29T12:06:52;5.20;;;4.80;;
16193;SDS011;8204;53.582;10.080;2023-07-29T12:09:18;5.53;;;5.03;;
16193;SDS011;8204;53.582;10.080;2023-07-29T12:11:43;5.03;;;4.63;;
16193;SDS011;8204;53.582;10.080;2023-07-29T12:14:09;5.27;;;4.97;;
16193;SDS011;8204;53.582;10.080;2023-07-29T12:16:41;5.10;;;4.70;;
16193;SDS011;8204;53.582;10.080;2023-07-29T12:19:08;4.83;;;4.53;;
16193;SDS011;8204;53.582;10.080;2023-07-29T12:21:33;5.07;;;4.67;;
16193;SDS011;8204;53.582;10.080;2023-07-29T12:23:59;4.90;;;4.50;;
16193;SDS011;8204;53.582;10.080;2023-07-29T12:26:28;4.10;;;3.90;;
16193;SDS011;8204;53.582;10.080;2023-07-29T12:28:54;4.47;;;4.17;;
16193;SDS011;8204;53.582;10.080;2023-07-29T12:31:20;3.77;;;3.47;;
16193;SDS011;8204;53.582;10.080;2023-07-29T12:33:45;5.00;;;4.70;;
16193;SDS011;8204;53.582;10.080;2023-07-29T12:36:11;5.70;;;4.13;;
16193;SDS011;8204;53.582;10.080;2023-07-29T12:38:36;3.80;;;3.50;;
16193;SDS011;8204;53.582;10.080;2023-07-29T12:41:02;3.93;;;3.70;;
16193;SDS011;8204;53.582;10.080;2023-07-29T12:43:27;6.17;;;5.67;;
16193;SDS011;8204;53.582;10.080;2023-07-29T12:45:53;3.97;;;3.70;;
16193;SDS011;8204;53.582;10.080;2023-07-29T12:48:18;4.27;;;3.97;;
16193;SDS011;8204;53.582;10.080;2023-07-29T12:50:44;3.30;;;3.10;;
16193;SDS011;8204;53.582;10.080;2023-07-29T12:53:10;3.80;;;3.50;;
16193;SDS011;8204;53.582;10.080;2023-07-29T12:55:35;3.77;;;3.47;;
16193;SDS011;8204;53.582;10.080;2023-07-29T12:58:01;3.17;;;2.97;;
16193;SDS011;8204;53.582;10.080;2023-07-29T13:00:27;3.50;;;3.30;;
16193;SDS011;8204;53.582;10.080;2023-07-29T13:02:52;3.67;;;3.27;;
16193;SDS011;8204;53.582;10.080;2023-07-29T13:05:17;3.00;;;2.77;;
16193;SDS011;8204;53.582;10.080;2023-07-29T13:07:43;2.90;;;2.70;;
16193;SDS011;8204;53.582;10.080;2023-07-29T13:10:09;2.93;;;2.63;;
16193;SDS011;8204;53.582;10.080;2023-07-29T13:12:35;3.67;;;2.80;;
16193;SDS011;8204;53.582;10.080;2023-07-29T13:15:00;3.33;;;3.10;;
16193;SDS011;8204;53.582;10.080;2023-07-29T13:17:26;3.17;;;2.97;;
16193;SDS011;8204;53.582;10.080;2023-07-29T13:19:51;3.07;;;2.87;;
16193;SDS011;8204;53.582;10.080;2023-07-29T13:22:17;3.47;;;3.17;;
16193;SDS011;8204;53.582;10.080;2023-07-29T13:24:43;3.00;;;2.80;;
16193;SDS011;8204;53.582;10.080;2023-07-29T13:27:08;2.90;;;2.70;;
16193;SDS011;8204;53.582;10.080;2023-07-29T13:29:33;2.93;;;2.73;;
16193;SDS011;8204;53.582;10.080;2023-07-29T13:31:59;3.07;;;2.77;;
16193;SDS011;8204;53.582;10.080;2023-07-29T13:34:24;3.67;;;3.37;;
16193;SDS011;8204;53.582;10.080;2023-07-29T13:36:49;3.13;;;2.93;;
16193;SDS011;8204;53.582;10.080;2023-07-29T13:39:15;2.90;;;2.70;;
16193;SDS011;8204;53.582;10.080;2023-07-29T13:41:41;2.70;;;2.50;;
16193;SDS011;8204;53.582;10.080;2023-07-29T13:44:07;4.03;;;2.87;;
16193;SDS011;8204;53.582;10.080;2023-07-29T13:46:33;2.40;;;2.30;;
16193;SDS011;8204;53.582;10.080;2023-07-29T13:48:58;3.13;;;2.93;;
16193;SDS011;8204;53.582;10.080;2023-07-29T13:51:23;3.37;;;3.10;;
16193;SDS011;8204;53.582;10.080;2023-07-29T13:53:49;3.07;;;2.87;;
16193;SDS011;8204;53.582;10.080;2023-07-29T13:56:15;3.30;;;2.67;;
16193;SDS011;8204;53.582;10.080;2023-07-29T13:58:41;2.87;;;2.73;;
16193;SDS011;8204;53.582;10.080;2023-07-29T14:01:06;2.97;;;2.77;;
16193;SDS011;8204;53.582;10.080;2023-07-29T14:03:32;2.63;;;2.43;;
16193;SDS011;8204;53.582;10.080;2023-07-29T14:05:58;3.27;;;3.07;;
16193;SDS011;8204;53.582;10.080;2023-07-29T14:08:23;4.07;;;2.73;;
16193;SDS011;8204;53.582;10.080;2023-07-29T14:10:49;3.10;;;2.80;;
16193;SDS011;8204;53.582;10.080;2023-07-29T14:13:14;3.00;;;2.80;;
16193;SDS011;8204;53.582;10.080;2023-07-29T14:15:40;3.17;;;2.93;;
16193;SDS011;8204;53.582;10.080;2023-07-29T14:18:06;2.70;;;2.50;;
16193;SDS011;8204;53.582;10.080;2023-07-29T14:20:32;3.20;;;2.47;;
16193;SDS011;8204;53.582;10.080;2023-07-29T14:22:58;2.60;;;2.40;;
16193;SDS011;8204;53.582;10.080;2023-07-29T14:25:24;3.53;;;3.17;;
16193;SDS011;8204;53.582;10.080;2023-07-29T14:27:50;3.00;;;2.80;;
16193;SDS011;8204;53.582;10.080;2023-07-29T14:30:15;2.47;;;2.37;;
16193;SDS011;8204;53.582;10.080;2023-07-29T14:32:41;3.57;;;3.23;;
16193;SDS011;8204;53.582;10.080;2023-07-29T14:35:06;3.17;;;2.97;;
16193;SDS011;8204;53.582;10.080;2023-07-29T14:37:33;3.13;;;2.93;;
16193;SDS011;8204;53.582;10.080;2023-07-29T14:39:59;5.53;;;2.83;;
16193;SDS011;8204;53.582;10.080;2023-07-29T14:42:26;3.20;;;2.90;;
16193;SDS011;8204;53.582;10.080;2023-07-29T14:44:52;2.80;;;2.60;;
16193;SDS011;8204;53.582;10.080;2023-07-29T14:47:18;2.67;;;2.47;;
16193;SDS011;8204;53.582;10.080;2023-07-29T14:49:44;2.80;;;2.60;;
16193;SDS011;8204;53.582;10.080;2023-07-29T14:52:10;2.57;;;2.40;;
16193;SDS011;8204;53.582;10.080;2023-07-29T14:54:36;2.67;;;2.50;;